Las Vegas, NV (89115)

11:21 PM PDT on August 28, 2015 (GMT -0700)
Photo Patterns | | Change Station
CLOSE
Current Station
Personal Weather Station
Location: North Las Vegas, NV
Elevation: 1860 ft
Nearby Weather Stations

Elev 1860 ft 36.22 °N, 115.09 °W | Updated 1 hour ago

Clear
Clear
96.8 °F
Feels Like 94 °F
N
0.0
Wind Variable Wind from SE
Gusts 0.0 mph

Today
High -- | Low -- °F
--% Chance of Precip.
Yesterday
High -- | Low -- °F
Precip. -- in
6:08 AM 7:13 PM
Full, 100% visible
Pressure 29.74 in
Visibility 10.0 miles
Clouds Scattered Clouds 25000 ft
Heat Index 94 °F
Dew Point 50 °F
Humidity 21%
Rainfall 0.00 in
Snow Depth Not available.
UV 0 out of 12
Pollen 6.10 out of 12
Air Quality Not available.
Flu Activity Not available.
METAR KLAS 290556Z 22004KT 10SM SCT250 34/11 A2983 RMK AO2 SLP070 T03440111 10406 20344 50006
Pressure 29.74 in
Visibility 10.0 miles
Clouds Scattered Clouds 25000 ft
Heat Index 94 °F
Dew Point 50 °F
Humidity 21%
Rainfall 0.00 in
Snow Depth Not available.
UV 0 out of 12
Pollen 6.10 out of 12
Air Quality Not available.
Flu Activity Not available.
METAR KLAS 290556Z 22004KT 10SM SCT250 34/11 A2983 RMK AO2 SLP070 T03440111 10406 20344 50006

10-Day Weather Forecast

×

Almanac

Astronomy

Aug. 28, 2015 Rise Set
Actual Time
Civil Twilight
Nautical Twilight
Astronomical Twilight
Moon
Length of Visible Light
Length of Day
Tomorrow will be .
, % of the Moon is Illuminated

Today's Extremes

State Highs State Lows

Community

WunderPhotos

Upload Photos

1,850,622 photos uploaded!

WunderBlogs® & News

Nearby

Air Quality

  Air Quality AQ Index Pollutant
Not available.

Snow Depth

Station Depth Elevation

Earthquake Activity

City Distance Mag. Time & Date
Minimum magnitude displayed is 2.5.

Coastal Water Temperatures

Place Temperature

Stations

Nearby Weather Stations

Station Location Temp. Windchill Dew Point Humidity Wind Precip. Elev Updated Type